createdAt,value
2019-05-28T00:01:39.751Z,16.20
2019-05-28T00:04:09.900Z,16.30
2019-05-28T00:06:39.959Z,16.20
2019-05-28T00:09:10.087Z,16.20
2019-05-28T00:11:40.062Z,16.20
2019-05-28T00:14:10.163Z,16.30
2019-05-28T00:16:40.248Z,16.30
2019-05-28T00:19:10.383Z,16.10
2019-05-28T00:21:40.472Z,16.10
2019-05-28T00:24:11.235Z,16.20
2019-05-28T00:26:41.420Z,16.20
2019-05-28T00:29:11.530Z,16.10
2019-05-28T00:31:41.507Z,16.10
2019-05-28T00:34:11.623Z,16.10
2019-05-28T00:36:41.740Z,16.20
2019-05-28T00:39:11.742Z,16.20
2019-05-28T00:41:42.160Z,16.20
2019-05-28T00:44:13.316Z,16.10
2019-05-28T00:46:43.431Z,16.10
2019-05-28T00:49:13.554Z,16.10
2019-05-28T00:51:43.680Z,16.20
2019-05-28T00:54:13.723Z,16.20
2019-05-28T00:56:44.406Z,16.20
2019-05-28T00:59:14.887Z,16.30
2019-05-28T01:01:44.931Z,16.10
2019-05-28T01:04:14.944Z,16.20
2019-05-28T01:06:44.994Z,16.20
2019-05-28T01:09:14.953Z,16.20
2019-05-28T01:11:44.995Z,16.30
2019-05-28T01:14:17.739Z,16.20
2019-05-28T01:16:47.804Z,16.20
2019-05-28T01:19:19.160Z,16.30
2019-05-28T01:21:49.291Z,16.20
2019-05-28T01:24:19.307Z,16.10
2019-05-28T01:26:49.356Z,16.10
2019-05-28T01:29:19.403Z,16.20
2019-05-28T01:31:49.491Z,16.10
2019-05-28T01:34:19.628Z,16.10
2019-05-28T01:36:49.711Z,16.10
2019-05-28T01:39:32.080Z,16.10
2019-05-28T01:42:02.564Z,16.10
2019-05-28T01:44:32.687Z,16.00
2019-05-28T01:47:02.803Z,16.00
2019-05-28T01:49:32.879Z,15.90
2019-05-28T01:52:02.995Z,16.00
2019-05-28T01:54:33.083Z,16.00
2019-05-28T01:57:03.131Z,15.90
2019-05-28T01:59:33.143Z,15.70
2019-05-28T02:02:03.211Z,15.80
2019-05-28T02:04:33.327Z,15.80
2019-05-28T02:07:03.352Z,15.80
2019-05-28T02:09:33.475Z,15.80
2019-05-28T02:12:06.384Z,15.80
2019-05-28T02:14:36.509Z,15.80
2019-05-28T02:17:06.507Z,15.90
2019-05-28T02:19:36.547Z,15.80
2019-05-28T02:22:06.675Z,15.80
2019-05-28T02:24:36.767Z,15.80
2019-05-28T02:27:06.931Z,15.90
2019-05-28T02:29:36.879Z,15.90
2019-05-28T02:32:06.911Z,15.90
2019-05-28T02:34:36.959Z,15.90
2019-05-28T02:37:07.048Z,15.90
2019-05-28T02:39:37.106Z,15.90
2019-05-28T02:42:07.180Z,16.00
2019-05-28T02:44:37.295Z,16.00
2019-05-28T02:47:07.312Z,15.90
2019-05-28T02:49:37.370Z,15.80
2019-05-28T02:52:07.754Z,15.90
2019-05-28T02:54:37.982Z,15.80
2019-05-28T02:57:09.058Z,15.80
2019-05-28T02:59:39.984Z,15.70
2019-05-28T03:02:12.640Z,15.60
2019-05-28T03:04:44.371Z,15.70
2019-05-28T03:07:15.456Z,15.80
2019-05-28T03:09:47.583Z,15.70
2019-05-28T03:12:17.712Z,15.60
2019-05-28T03:14:47.839Z,15.70
2019-05-28T03:17:19.468Z,15.60
2019-05-28T03:19:50.905Z,15.70
2019-05-28T03:22:20.771Z,15.70
2019-05-28T03:24:52.027Z,15.70
2019-05-28T03:27:21.299Z,15.70
2019-05-28T03:29:51.246Z,15.60
2019-05-28T03:32:21.369Z,15.70
2019-05-28T03:34:51.376Z,15.70
2019-05-28T03:37:22.008Z,15.60
2019-05-28T03:39:54.511Z,15.70
2019-05-28T03:42:24.553Z,15.70
2019-05-28T03:44:54.496Z,15.60
2019-05-28T03:47:24.547Z,15.60
2019-05-28T03:49:54.631Z,15.50
2019-05-28T03:52:24.755Z,15.60
2019-05-28T03:54:55.871Z,15.60
2019-05-28T03:57:25.911Z,15.70
2019-05-28T03:59:57.964Z,15.70
2019-05-28T04:02:27.624Z,15.80
2019-05-28T04:04:57.671Z,15.80
2019-05-28T04:07:27.843Z,15.80
2019-05-28T04:09:57.970Z,15.90
2019-05-28T04:12:28.051Z,15.90
2019-05-28T04:14:58.051Z,15.90
2019-05-28T04:17:28.023Z,15.80
2019-05-28T04:19:57.967Z,15.70
2019-05-28T04:22:28.016Z,15.80
2019-05-28T04:24:58.033Z,15.90
2019-05-28T04:27:28.014Z,15.90
2019-05-28T04:29:57.954Z,15.90
2019-05-28T04:32:40.099Z,16.00
2019-05-28T04:34:59.636Z,16.00
2019-05-28T04:37:29.680Z,16.00
2019-05-28T04:39:59.629Z,16.10
2019-05-28T04:42:29.687Z,16.10
2019-05-28T04:44:59.624Z,16.20
2019-05-28T04:47:29.615Z,16.20
2019-05-28T04:49:59.598Z,16.20
2019-05-28T04:52:30.813Z,16.20
2019-05-28T04:55:01.125Z,16.00
2019-05-28T04:57:31.167Z,16.10
2019-05-28T05:00:01.215Z,16.20
2019-05-28T05:02:31.263Z,16.10
2019-05-28T05:05:01.307Z,16.00
2019-05-28T05:07:31.321Z,16.10
2019-05-28T05:10:01.309Z,16.10
2019-05-28T05:12:31.317Z,16.20
2019-05-28T05:15:01.360Z,16.30
2019-05-28T05:17:31.402Z,16.10
2019-05-28T05:20:01.509Z,16.30
2019-05-28T05:22:31.448Z,16.40
2019-05-28T05:25:01.466Z,16.40
2019-05-28T05:27:31.461Z,16.40
2019-05-28T05:30:01.504Z,16.40
2019-05-28T05:32:31.635Z,16.40
2019-05-28T05:35:01.684Z,16.40
2019-05-28T05:37:31.809Z,16.50
2019-05-28T05:40:02.019Z,16.50
2019-05-28T05:42:32.081Z,16.50
2019-05-28T05:45:02.084Z,16.50
2019-05-28T05:47:32.156Z,16.50
2019-05-28T05:50:02.269Z,16.60
2019-05-28T05:52:32.354Z,16.60
2019-05-28T05:55:02.424Z,16.70
2019-05-28T05:57:32.492Z,16.80
2019-05-28T06:00:02.612Z,16.90
2019-05-28T06:02:32.700Z,17.10
2019-05-28T06:05:03.017Z,17.20
2019-05-28T06:07:45.413Z,17.20
2019-05-28T06:10:15.635Z,17.20
2019-05-28T06:12:45.708Z,16.90
2019-05-28T06:15:15.864Z,17.00
2019-05-28T06:17:45.801Z,17.00
2019-05-28T06:20:15.922Z,17.10
2019-05-28T06:22:46.033Z,17.30
2019-05-28T06:25:16.153Z,17.60
2019-05-28T06:27:46.193Z,17.70
2019-05-28T06:30:16.596Z,17.70
2019-05-28T06:32:46.555Z,17.60
2019-05-28T06:35:16.751Z,17.60
2019-05-28T06:37:46.868Z,17.50
2019-05-28T06:40:17.756Z,17.60
2019-05-28T06:42:47.728Z,17.50
2019-05-28T06:45:18.211Z,17.70
2019-05-28T06:47:48.263Z,17.90
2019-05-28T06:50:18.453Z,17.80
2019-05-28T06:52:48.500Z,17.80
2019-05-28T06:55:18.594Z,17.70
2019-05-28T06:57:48.703Z,17.70
2019-05-28T07:00:20.831Z,17.80
2019-05-28T07:02:50.967Z,17.80
2019-05-28T07:05:21.159Z,17.80
2019-05-28T07:08:04.320Z,18.00
2019-05-28T07:10:34.428Z,18.10
2019-05-28T07:13:04.621Z,17.80
2019-05-28T07:15:34.792Z,17.90
2019-05-28T07:18:04.875Z,18.10
2019-05-28T07:20:35.005Z,18.10
2019-05-28T07:23:05.085Z,18.30
2019-05-28T07:25:35.132Z,18.40
2019-05-28T07:28:11.307Z,18.40
2019-05-28T07:30:36.976Z,18.40
2019-05-28T07:33:07.927Z,18.70
2019-05-28T07:35:45.688Z,18.70
2019-05-28T07:38:10.704Z,18.80
2019-05-28T07:40:40.744Z,18.80
2019-05-28T07:43:10.737Z,18.60
2019-05-28T07:45:40.821Z,18.60
2019-05-28T07:48:10.938Z,18.80
2019-05-28T07:50:41.042Z,18.70
2019-05-28T07:53:11.139Z,18.80
2019-05-28T07:55:41.167Z,19.00
2019-05-28T07:58:11.276Z,19.10
2019-05-28T08:00:42.414Z,19.20
2019-05-28T08:03:12.484Z,19.20
2019-05-28T08:05:42.599Z,19.20
2019-05-28T08:08:15.607Z,19.30
2019-05-28T08:10:45.716Z,19.10
2019-05-28T08:13:15.811Z,19.20
2019-05-28T08:15:46.000Z,19.20
2019-05-28T08:18:16.005Z,19.40
2019-05-28T08:20:46.006Z,19.60
2019-05-28T08:23:16.107Z,19.70
2019-05-28T08:25:47.974Z,19.90
2019-05-28T08:28:20.237Z,20.10
2019-05-28T08:30:49.627Z,20.20
2019-05-28T08:33:19.729Z,20.00
2019-05-28T08:35:51.684Z,19.60
2019-05-28T08:38:21.523Z,19.60
2019-05-28T08:40:51.695Z,19.70
2019-05-28T08:43:21.764Z,19.60
2019-05-28T08:45:51.869Z,19.60
2019-05-28T08:48:21.975Z,19.60
2019-05-28T08:50:51.980Z,19.60
2019-05-28T08:53:22.088Z,19.60
2019-05-28T08:55:52.169Z,19.60
2019-05-28T08:58:22.273Z,19.60
2019-05-28T09:00:52.403Z,19.50
2019-05-28T09:03:22.500Z,19.60
2019-05-28T09:05:52.475Z,19.60
2019-05-28T09:08:37.641Z,19.40
2019-05-28T09:10:54.201Z,19.40
2019-05-28T09:13:29.237Z,19.20
2019-05-28T09:16:02.356Z,19.20
2019-05-28T09:18:32.473Z,19.20
2019-05-28T09:21:06.607Z,19.20
2019-05-28T09:23:41.219Z,19.40
2019-05-28T09:26:15.620Z,19.60
2019-05-28T09:28:46.078Z,19.60
2019-05-28T09:31:16.441Z,19.80
2019-05-28T09:33:46.974Z,19.60
2019-05-28T09:36:23.392Z,19.70
2019-05-28T09:38:53.418Z,19.90
2019-05-28T09:41:23.642Z,20.00
2019-05-28T09:43:53.788Z,20.20
2019-05-28T09:46:24.205Z,20.10
2019-05-28T09:48:54.248Z,19.90
2019-05-28T09:51:25.399Z,19.80
2019-05-28T09:53:55.589Z,19.90
2019-05-28T09:56:25.660Z,20.10
2019-05-28T09:58:57.632Z,20.10
2019-05-28T10:01:37.069Z,20.10
2019-05-28T10:04:11.394Z,20.40
2019-05-28T10:06:45.949Z,20.40
2019-05-28T10:09:18.855Z,20.20
2019-05-28T10:11:56.196Z,20.30
2019-05-28T10:14:26.176Z,20.40
2019-05-28T10:16:56.290Z,20.40
2019-05-28T10:19:26.372Z,20.60
2019-05-28T10:21:56.411Z,20.50
2019-05-28T10:24:26.451Z,20.60
2019-05-28T10:26:56.452Z,20.60
2019-05-28T10:29:26.586Z,20.70
2019-05-28T10:31:56.592Z,20.50
2019-05-28T10:34:26.683Z,20.80
2019-05-28T10:36:56.827Z,21.00
2019-05-28T10:39:26.795Z,21.00
2019-05-28T10:41:56.859Z,20.90
2019-05-28T10:44:26.893Z,20.90
2019-05-28T10:46:57.383Z,21.10
2019-05-28T10:49:28.495Z,21.10
2019-05-28T10:51:59.795Z,21.30
2019-05-28T10:54:29.861Z,21.80
2019-05-28T10:56:59.956Z,21.80
2019-05-28T10:59:29.892Z,21.60
2019-05-28T11:02:00.367Z,21.60
2019-05-28T11:04:30.472Z,21.70
2019-05-28T11:07:00.471Z,21.40
2019-05-28T11:09:30.449Z,21.30
2019-05-28T11:12:00.453Z,21.50
2019-05-28T11:14:30.579Z,21.50
2019-05-28T11:17:00.612Z,21.40
2019-05-28T11:19:30.596Z,21.60
2019-05-28T11:22:00.723Z,21.30
2019-05-28T11:24:30.732Z,21.50
2019-05-28T11:27:00.853Z,22.00
2019-05-28T11:29:30.851Z,21.70
2019-05-28T11:32:00.924Z,21.70
2019-05-28T11:34:31.109Z,21.40
2019-05-28T11:37:09.714Z,21.50
2019-05-28T11:39:32.785Z,21.60
2019-05-28T11:42:02.862Z,22.00
2019-05-28T11:44:33.008Z,21.70
2019-05-28T11:47:03.065Z,21.70
2019-05-28T11:49:33.152Z,21.80
2019-05-28T11:52:03.260Z,22.10
2019-05-28T11:54:33.295Z,22.10
2019-05-28T11:57:03.478Z,22.40
2019-05-28T11:59:33.556Z,22.30
2019-05-28T12:02:05.285Z,21.90
2019-05-28T12:04:35.419Z,21.90
2019-05-28T12:07:05.520Z,21.90
2019-05-28T12:09:35.464Z,21.70
2019-05-28T12:12:05.580Z,21.60
2019-05-28T12:14:35.664Z,21.60
2019-05-28T12:17:05.772Z,21.70
2019-05-28T12:19:35.844Z,21.60
2019-05-28T12:22:05.939Z,21.70
2019-05-28T12:24:35.999Z,21.90
2019-05-28T12:27:06.693Z,21.90
2019-05-28T12:29:51.084Z,21.90
2019-05-28T12:32:09.677Z,22.00
2019-05-28T12:34:40.398Z,22.00
2019-05-28T12:37:10.451Z,22.00
2019-05-28T12:39:40.493Z,22.00
2019-05-28T12:42:10.562Z,22.00
2019-05-28T12:44:42.854Z,22.20
2019-05-28T12:47:14.892Z,22.40
2019-05-28T12:49:45.055Z,22.50
2019-05-28T12:52:15.047Z,22.60
2019-05-28T12:54:45.087Z,22.70
2019-05-28T12:57:15.203Z,23.30
2019-05-28T12:59:45.243Z,23.20
2019-05-28T13:02:15.364Z,23.50
2019-05-28T13:04:45.488Z,23.20
2019-05-28T13:07:15.433Z,22.90
2019-05-28T13:09:48.923Z,23.50
2019-05-28T13:12:17.199Z,23.50
2019-05-28T13:14:49.004Z,23.50
2019-05-28T13:17:19.018Z,23.60
2019-05-28T13:19:49.001Z,23.70
2019-05-28T13:22:19.025Z,23.90
2019-05-28T13:24:49.068Z,24.10
2019-05-28T13:27:20.012Z,24.40
2019-05-28T13:29:50.344Z,24.70
2019-05-28T13:32:20.160Z,24.50
2019-05-28T13:34:50.299Z,24.30
2019-05-28T13:37:20.439Z,24.50
2019-05-28T13:39:50.400Z,24.50
2019-05-28T13:42:20.509Z,24.20
2019-05-28T13:44:50.549Z,24.00
2019-05-28T13:47:33.109Z,24.70
2019-05-28T13:49:52.355Z,25.00
2019-05-28T13:52:22.472Z,24.90
2019-05-28T13:54:52.416Z,24.70
2019-05-28T13:57:22.693Z,24.50
2019-05-28T13:59:58.412Z,24.20
2019-05-28T14:02:24.244Z,24.10
2019-05-28T14:04:54.376Z,23.90
2019-05-28T14:07:24.487Z,23.70
2019-05-28T14:09:54.542Z,23.50
2019-05-28T14:12:24.485Z,23.20
2019-05-28T14:14:56.164Z,23.20
2019-05-28T14:17:26.172Z,23.50
2019-05-28T14:19:56.229Z,23.80
2019-05-28T14:22:33.898Z,23.60
2019-05-28T14:24:58.010Z,24.10
2019-05-28T14:27:28.059Z,24.80
2019-05-28T14:29:58.147Z,25.10
2019-05-28T14:32:29.541Z,24.80
2019-05-28T14:34:59.489Z,24.70
2019-05-28T14:37:29.467Z,24.80
2019-05-28T14:39:59.547Z,24.80
2019-05-28T14:42:29.603Z,24.20
2019-05-28T14:44:59.619Z,24.30
2019-05-28T14:47:29.772Z,24.40
2019-05-28T14:49:59.785Z,24.40
2019-05-28T14:52:29.780Z,24.20
2019-05-28T14:54:59.786Z,24.20
2019-05-28T14:57:29.780Z,24.00
2019-05-28T14:59:59.752Z,23.90
2019-05-28T15:02:29.768Z,23.90
2019-05-28T15:04:59.824Z,24.00
2019-05-28T15:07:29.835Z,24.00
2019-05-28T15:09:59.895Z,24.00
2019-05-28T15:12:29.840Z,24.00
2019-05-28T15:14:59.961Z,23.80
2019-05-28T15:17:30.073Z,23.60
2019-05-28T15:20:00.203Z,23.60
2019-05-28T15:22:30.247Z,23.30
2019-05-28T15:25:00.259Z,23.20
2019-05-28T15:27:30.385Z,23.30
2019-05-28T15:30:00.437Z,23.20
2019-05-28T15:32:30.543Z,23.00
2019-05-28T15:35:00.559Z,22.90
2019-05-28T15:37:30.695Z,22.70
2019-05-28T15:40:00.615Z,22.60
2019-05-28T15:42:30.747Z,22.70
2019-05-28T15:45:00.712Z,22.70
2019-05-28T15:47:30.657Z,22.80
2019-05-28T15:50:00.852Z,22.80
2019-05-28T15:52:30.844Z,22.70
2019-05-28T15:55:00.892Z,22.60
2019-05-28T15:57:31.192Z,22.50
2019-05-28T16:00:01.287Z,22.50
2019-05-28T16:02:31.326Z,22.40
2019-05-28T16:05:01.320Z,22.30
2019-05-28T16:07:31.659Z,22.20
2019-05-28T16:10:02.456Z,22.20
2019-05-28T16:12:33.983Z,22.20
2019-05-28T16:15:06.569Z,22.20
2019-05-28T16:17:36.703Z,22.00
2019-05-28T16:20:08.358Z,21.90
2019-05-28T16:22:38.553Z,22.00
2019-05-28T16:25:09.649Z,21.90
2019-05-28T16:27:39.801Z,22.10
2019-05-28T16:30:11.649Z,22.10
2019-05-28T16:32:41.878Z,22.20
2019-05-28T16:35:12.563Z,22.00
2019-05-28T16:37:42.696Z,22.00
2019-05-28T16:40:16.225Z,21.90
2019-05-28T16:42:44.866Z,22.00
2019-05-28T16:45:15.681Z,22.00
2019-05-28T16:47:45.903Z,21.90
2019-05-28T16:50:16.567Z,21.90
2019-05-28T16:52:46.894Z,21.90
2019-05-28T16:55:17.324Z,21.80
2019-05-28T16:57:47.469Z,21.80
2019-05-28T17:00:17.983Z,21.80
2019-05-28T17:02:48.083Z,21.50
2019-05-28T17:05:18.414Z,21.20
2019-05-28T17:07:48.675Z,21.00
2019-05-28T17:10:32.481Z,20.40
2019-05-28T17:12:50.513Z,20.20
2019-05-28T17:15:21.021Z,20.30
2019-05-28T17:17:51.153Z,20.20
2019-05-28T17:20:21.306Z,20.10
2019-05-28T17:22:51.482Z,20.00
2019-05-28T17:25:21.627Z,19.90
2019-05-28T17:27:52.197Z,19.70
2019-05-28T17:30:24.327Z,19.40
2019-05-28T17:32:54.115Z,19.20
2019-05-28T17:35:24.115Z,19.00
2019-05-28T17:37:54.156Z,18.80
2019-05-28T17:40:24.683Z,18.50
2019-05-28T17:42:55.032Z,18.30
2019-05-28T17:45:25.075Z,18.10
2019-05-28T17:47:55.112Z,18.10
2019-05-28T17:50:25.338Z,18.20
2019-05-28T17:52:55.487Z,18.00
2019-05-28T17:55:25.529Z,17.80
2019-05-28T17:57:55.505Z,17.90
2019-05-28T18:00:25.512Z,17.80
2019-05-28T18:02:55.476Z,17.70
2019-05-28T18:05:25.657Z,17.60
2019-05-28T18:07:55.691Z,17.50
2019-05-28T18:10:25.683Z,17.40
2019-05-28T18:12:55.788Z,17.40
2019-05-28T18:15:26.035Z,17.50
2019-05-28T18:17:56.169Z,17.50
2019-05-28T18:20:26.257Z,17.40
2019-05-28T18:22:56.361Z,17.50
2019-05-28T18:25:26.610Z,17.30
2019-05-28T18:27:56.695Z,17.20
2019-05-28T18:30:26.784Z,17.30
2019-05-28T18:32:57.114Z,17.30
2019-05-28T18:35:27.355Z,17.20
2019-05-28T18:38:03.361Z,17.10
2019-05-28T18:40:29.251Z,17.10
2019-05-28T18:42:59.599Z,17.10
2019-05-28T18:45:29.763Z,17.10
2019-05-28T18:47:59.935Z,17.20
2019-05-28T18:50:30.012Z,17.10
2019-05-28T18:53:00.048Z,17.10
2019-05-28T18:55:30.116Z,17.10
2019-05-28T18:58:00.454Z,17.00
2019-05-28T19:00:30.532Z,17.00
2019-05-28T19:03:00.578Z,16.70
2019-05-28T19:05:30.839Z,16.70
2019-05-28T19:08:00.879Z,16.70
2019-05-28T19:10:30.886Z,16.60
2019-05-28T19:13:00.843Z,16.70
2019-05-28T19:15:30.956Z,16.70
2019-05-28T19:18:01.072Z,16.60
2019-05-28T19:20:31.320Z,16.70
2019-05-28T19:23:01.369Z,16.70
2019-05-28T19:25:31.620Z,16.80
2019-05-28T19:28:01.618Z,16.80
2019-05-28T19:30:34.017Z,16.80
2019-05-28T19:33:05.364Z,16.80
2019-05-28T19:35:34.730Z,16.80
2019-05-28T19:38:04.864Z,16.90
2019-05-28T19:40:43.190Z,16.90
2019-05-28T19:43:13.287Z,17.00
2019-05-28T19:45:43.418Z,17.10
2019-05-28T19:48:14.002Z,17.10
2019-05-28T19:50:45.276Z,16.90
2019-05-28T19:53:15.521Z,17.00
2019-05-28T19:55:45.694Z,17.10
2019-05-28T19:58:15.816Z,17.00
2019-05-28T20:00:45.908Z,16.80
2019-05-28T20:03:16.023Z,16.80
2019-05-28T20:05:46.173Z,17.00
2019-05-28T20:08:16.414Z,17.10
2019-05-28T20:10:46.541Z,17.00
2019-05-28T20:13:16.656Z,16.90
2019-05-28T20:15:46.751Z,16.80
2019-05-28T20:18:26.445Z,16.80
2019-05-28T20:20:49.567Z,16.90
2019-05-28T20:23:19.122Z,17.00
2019-05-28T20:25:51.323Z,17.00
2019-05-28T20:28:20.864Z,16.90
2019-05-28T20:30:51.016Z,16.80
2019-05-28T20:33:21.087Z,16.90
2019-05-28T20:35:51.228Z,16.90
2019-05-28T20:38:21.291Z,16.90
2019-05-28T20:40:51.438Z,16.90
2019-05-28T20:43:21.403Z,16.90
2019-05-28T20:45:51.543Z,16.80
2019-05-28T20:48:21.620Z,16.80
2019-05-28T20:51:06.750Z,16.80
2019-05-28T20:53:35.538Z,16.80
2019-05-28T20:55:56.237Z,16.80
2019-05-28T20:58:39.312Z,16.80
2019-05-28T21:00:59.102Z,16.70
2019-05-28T21:03:29.238Z,16.70
2019-05-28T21:05:59.331Z,16.70
2019-05-28T21:08:29.355Z,16.60
2019-05-28T21:10:59.465Z,16.60
2019-05-28T21:13:29.535Z,16.50
2019-05-28T21:15:59.637Z,16.50
2019-05-28T21:18:29.752Z,16.50
2019-05-28T21:20:59.891Z,16.50
2019-05-28T21:23:29.999Z,16.50
2019-05-28T21:26:00.846Z,16.40
2019-05-28T21:28:31.145Z,16.40
2019-05-28T21:31:01.185Z,16.40
2019-05-28T21:33:31.147Z,16.40
2019-05-28T21:36:01.462Z,16.40
2019-05-28T21:38:31.710Z,16.50
2019-05-28T21:41:02.175Z,16.40
2019-05-28T21:43:32.044Z,16.40
2019-05-28T21:46:02.442Z,16.30
2019-05-28T21:48:32.647Z,16.30
2019-05-28T21:51:02.872Z,16.30
2019-05-28T21:53:33.075Z,16.40
2019-05-28T21:56:03.522Z,16.40
2019-05-28T21:58:33.784Z,16.50
2019-05-28T22:01:09.923Z,16.60
2019-05-28T22:03:39.960Z,16.50
2019-05-28T22:06:09.992Z,16.60
2019-05-28T22:08:40.095Z,16.70
2019-05-28T22:11:10.203Z,16.50
2019-05-28T22:13:40.280Z,16.50
2019-05-28T22:16:10.460Z,16.60
2019-05-28T22:18:41.539Z,16.50
2019-05-28T22:21:11.665Z,16.60
2019-05-28T22:23:41.860Z,16.60
2019-05-28T22:26:12.051Z,16.70
2019-05-28T22:28:42.056Z,16.70
2019-05-28T22:31:14.872Z,16.50
2019-05-28T22:33:45.472Z,16.40
2019-05-28T22:36:15.989Z,16.40
2019-05-28T22:38:47.876Z,16.60
2019-05-28T22:41:17.991Z,16.40
2019-05-28T22:43:48.080Z,16.40
2019-05-28T22:46:18.290Z,16.60
2019-05-28T22:48:50.293Z,16.60
2019-05-28T22:51:20.373Z,16.50
2019-05-28T22:53:50.424Z,16.60
2019-05-28T22:56:20.488Z,16.30
2019-05-28T22:58:50.473Z,16.10
2019-05-28T23:01:20.628Z,16.10
2019-05-28T23:03:51.217Z,16.10
2019-05-28T23:06:21.356Z,16.20
2019-05-28T23:08:51.456Z,16.30
2019-05-28T23:11:26.747Z,16.00
2019-05-28T23:13:57.173Z,16.00
2019-05-28T23:16:27.367Z,16.10
2019-05-28T23:18:57.380Z,16.10
2019-05-28T23:21:27.555Z,16.10
2019-05-28T23:23:58.262Z,16.20
2019-05-28T23:26:28.454Z,16.20
2019-05-28T23:28:58.476Z,16.30
2019-05-28T23:31:28.793Z,16.30
2019-05-28T23:33:58.796Z,16.50
2019-05-28T23:36:28.905Z,16.40
2019-05-28T23:38:59.043Z,16.30
2019-05-28T23:41:29.175Z,16.30
2019-05-28T23:44:01.906Z,16.30
2019-05-28T23:46:31.060Z,16.30
2019-05-28T23:49:01.120Z,16.30
2019-05-28T23:51:31.364Z,16.20
2019-05-28T23:54:01.513Z,16.20
2019-05-28T23:56:31.565Z,16.20
2019-05-28T23:59:01.753Z,16.20
